Terminal Aerodrome Forecast
Issued by NWS Wilmington, OH

Home | Current Version | Previous Version | Graphics & Text | Print | Product List | Glossary Off
Versions: 1 2 3 4 5 6 7 8 9 10 11 12 13 14 15 16 17 18 19 20 21 22 23

000
FTUS41 KILN 201700
TAFCMH
TAF
KCMH 201737Z 2018/2118 22010KT P6SM SCT030
     FM210000 25005KT P6SM SCT250
     FM211200 23006KT P6SM VCTS BKN040CB
     FM211600 24008KT P6SM SCT040 BKN150=

USA.gov is the U.S. government's official web portal to all federal, state and local government web resources and services.